Time;durP1;ratioP1;P1;durP2;ratioP2;P2;SDS_P1;SDS_P2;PMS_P1;PMS_P2;Temp;Humidity;BMP_temperature;BMP_pressure;BME280_temperature;BME280_humidity;BME280_pressure;Samples;Min_cycle;Max_cycle;Signal;HPM_P1;HPM_P2
2022/09/10 00:00:37;;;;;;;1.80;0.50;;;;;;;;;;5005932;28;20045;-76
2022/09/10 00:03:04;;;;;;;4.07;0.60;;;;;;;;;;5008484;28;20021;-76
2022/09/10 00:05:30;;;;;;;4.25;0.52;;;;;;;;;;5007883;28;20430;-76
2022/09/10 00:07:57;;;;;;;4.03;0.80;;;;;;;;;;5010243;28;20136;-76
2022/09/10 00:10:25;;;;;;;3.50;0.50;;;;;;;;;;5006405;28;20092;-76
2022/09/10 00:12:51;;;;;;;2.85;0.43;;;;;;;;;;5009010;28;20037;-76
2022/09/10 00:15:18;;;;;;;3.80;0.55;;;;;;;;;;5003295;28;20275;-76
2022/09/10 00:17:44;;;;;;;2.83;0.60;;;;;;;;;;5004961;28;20116;-76
2022/09/10 00:20:10;;;;;;;2.38;0.55;;;;;;;;;;5005894;28;20105;-76
2022/09/10 00:22:36;;;;;;;4.63;0.70;;;;;;;;;;5008741;28;20505;-76
2022/09/10 00:25:02;;;;;;;3.15;0.80;;;;;;;;;;5009857;28;20037;-76
2022/09/10 00:27:28;;;;;;;5.18;0.75;;;;;;;;;;4993856;28;20058;-76
2022/09/10 00:29:54;;;;;;;2.97;0.60;;;;;;;;;;5007301;28;20037;-76
2022/09/10 00:32:21;;;;;;;3.15;0.70;;;;;;;;;;5008826;28;20022;-76
2022/09/10 00:34:47;;;;;;;2.22;0.57;;;;;;;;;;5007262;28;20038;-76
2022/09/10 00:37:15;;;;;;;3.72;0.63;;;;;;;;;;5008755;28;20034;-76
2022/09/10 00:39:41;;;;;;;3.25;0.82;;;;;;;;;;5009361;28;20036;-76
2022/09/10 00:42:10;;;;;;;3.83;0.70;;;;;;;;;;5007678;28;20030;-76
2022/09/10 00:44:39;;;;;;;3.25;0.70;;;;;;;;;;5008601;28;20132;-76
2022/09/10 00:47:17;;;;;;;4.78;1.50;;;;;;;;;;5006664;28;20474;-76
2022/09/10 00:49:46;;;;;;;5.70;0.90;;;;;;;;;;5008816;28;20785;-76
2022/09/10 00:52:12;;;;;;;6.15;1.00;;;;;;;;;;5000160;28;20423;-77
2022/09/10 00:54:41;;;;;;;3.13;0.95;;;;;;;;;;5005633;28;20033;-76
2022/09/10 00:57:11;;;;;;;2.42;0.70;;;;;;;;;;4999051;28;20025;-76
2022/09/10 00:59:38;;;;;;;4.93;0.68;;;;;;;;;;5004385;28;20026;-76
2022/09/10 01:02:04;;;;;;;2.90;0.73;;;;;;;;;;5000740;28;20105;-76
2022/09/10 01:04:30;;;;;;;2.25;0.57;;;;;;;;;;5008618;28;20105;-76
2022/09/10 01:06:57;;;;;;;2.40;0.50;;;;;;;;;;5000144;28;20041;-76
2022/09/10 01:09:23;;;;;;;2.65;0.65;;;;;;;;;;5001942;28;20117;-76
2022/09/10 01:11:55;;;;;;;1.60;0.52;;;;;;;;;;4997833;28;20042;-76
2022/09/10 01:14:21;;;;;;;;;;;;;;;;;;5001762;28;20028;-76
2022/09/10 01:17:02;;;;;;;5.35;0.85;;;;;;;;;;5007125;28;19917;-76
2022/09/10 01:19:47;;;;;;;5.72;0.75;;;;;;;;;;5008124;28;20029;-76
2022/09/10 01:22:16;;;;;;;2.60;0.40;;;;;;;;;;5004639;28;20025;-76
2022/09/10 01:24:51;;;;;;;4.03;0.70;;;;;;;;;;5013245;28;20041;-76
2022/09/10 01:27:36;;;;;;;5.75;0.60;;;;;;;;;;5010134;28;20773;-76
2022/09/10 01:30:05;;;;;;;2.50;0.60;;;;;;;;;;4999216;28;20380;-76
2022/09/10 01:32:31;;;;;;;4.82;0.77;;;;;;;;;;4991201;28;20034;-76
2022/09/10 01:35:14;;;;;;;7.93;1.05;;;;;;;;;;5007551;28;20066;-76
2022/09/10 01:37:42;;;;;;;3.33;0.70;;;;;;;;;;4990204;28;20038;-76
2022/09/10 01:40:09;;;;;;;4.85;0.70;;;;;;;;;;4998362;28;20566;-76
2022/09/10 01:42:36;;;;;;;3.83;0.77;;;;;;;;;;5007885;28;20108;-76
2022/09/10 01:45:03;;;;;;;3.95;0.77;;;;;;;;;;5005290;28;20475;-76
2022/09/10 01:47:43;;;;;;;5.60;1.00;;;;;;;;;;5004195;28;20085;-76
2022/09/10 01:50:10;;;;;;;4.18;0.75;;;;;;;;;;5000781;28;20477;-76
2022/09/10 01:52:36;;;;;;;6.00;0.82;;;;;;;;;;5008019;28;20434;-76
2022/09/10 01:55:09;;;;;;;5.25;1.02;;;;;;;;;;5000681;28;20043;-76
2022/09/10 01:57:43;;;;;;;3.40;0.60;;;;;;;;;;5008155;28;20030;-76
2022/09/10 02:00:11;;;;;;;4.78;0.77;;;;;;;;;;5008186;28;20113;-76
2022/09/10 02:02:56;;;;;;;4.32;1.00;;;;;;;;;;5001821;28;20030;-76
2022/09/10 02:05:23;;;;;;;5.75;1.75;;;;;;;;;;5004350;28;20042;-76
2022/09/10 02:07:51;;;;;;;6.82;3.28;;;;;;;;;;5007652;28;20044;-76
2022/09/10 02:10:17;;;;;;;5.50;2.70;;;;;;;;;;5008093;28;20046;-76
2022/09/10 02:12:44;;;;;;;7.03;2.72;;;;;;;;;;4983983;28;20116;-76
2022/09/10 02:15:11;;;;;;;6.88;2.78;;;;;;;;;;5007129;28;20173;-76
2022/09/10 02:17:38;;;;;;;6.07;2.80;;;;;;;;;;5001232;28;20030;-76
2022/09/10 02:20:13;;;;;;;6.30;2.67;;;;;;;;;;5005615;28;20046;-76
2022/09/10 02:22:40;;;;;;;7.40;2.03;;;;;;;;;;5009214;28;20372;-76
2022/09/10 02:25:06;;;;;;;8.95;3.10;;;;;;;;;;5003739;28;20038;-76
2022/09/10 02:27:32;;;;;;;7.40;3.20;;;;;;;;;;5000967;28;20053;-76
2022/09/10 02:29:58;;;;;;;7.40;1.60;;;;;;;;;;5011498;28;20034;-76
2022/09/10 02:32:24;;;;;;;10.18;3.22;;;;;;;;;;5008246;28;20407;-76
2022/09/10 02:34:50;;;;;;;6.97;2.20;;;;;;;;;;5011595;28;20033;-76
2022/09/10 02:37:17;;;;;;;6.43;3.13;;;;;;;;;;5005393;28;20050;-76
2022/09/10 02:39:45;;;;;;;6.53;1.70;;;;;;;;;;5006749;28;20042;-76
2022/09/10 02:42:14;;;;;;;8.45;2.00;;;;;;;;;;5008809;28;20014;-76
2022/09/10 02:44:40;;;;;;;7.00;2.13;;;;;;;;;;5010260;28;20025;-76
2022/09/10 02:47:06;;;;;;;6.60;2.17;;;;;;;;;;5008791;28;20034;-76
2022/09/10 02:49:33;;;;;;;8.40;1.60;;;;;;;;;;5009746;28;20113;-76
2022/09/10 02:52:01;;;;;;;4.05;1.27;;;;;;;;;;5011394;28;20036;-76
2022/09/10 02:54:27;;;;;;;2.03;0.60;;;;;;;;;;5009692;28;20833;-76
2022/09/10 02:56:53;;;;;;;3.80;0.80;;;;;;;;;;5011266;28;20159;-76
2022/09/10 02:59:21;;;;;;;2.40;0.40;;;;;;;;;;5008615;28;20030;-76
2022/09/10 03:01:47;;;;;;;2.90;0.90;;;;;;;;;;5007678;28;20042;-76
2022/09/10 03:04:14;;;;;;;8.00;4.28;;;;;;;;;;5003864;28;20029;-76
2022/09/10 03:06:42;;;;;;;4.72;2.10;;;;;;;;;;5011183;28;20042;-76
2022/09/10 03:09:08;;;;;;;5.63;1.30;;;;;;;;;;4994294;28;20495;-76
2022/09/10 03:11:39;;;;;;;3.10;0.52;;;;;;;;;;5009583;28;20049;-76
2022/09/10 03:14:05;;;;;;;3.45;0.52;;;;;;;;;;5006472;28;20065;-76
2022/09/10 03:16:31;;;;;;;3.05;0.47;;;;;;;;;;5010431;28;20143;-76
2022/09/10 03:18:57;;;;;;;2.35;0.57;;;;;;;;;;5005464;28;20832;-76
2022/09/10 03:21:24;;;;;;;3.35;0.82;;;;;;;;;;5010096;28;20065;-76
2022/09/10 03:23:51;;;;;;;3.28;0.80;;;;;;;;;;5007983;28;20030;-76
2022/09/10 03:26:18;;;;;;;6.65;0.85;;;;;;;;;;5009305;28;20557;-76
2022/09/10 03:28:44;;;;;;;5.65;1.23;;;;;;;;;;5009477;28;20735;-76
2022/09/10 03:31:10;;;;;;;9.52;1.05;;;;;;;;;;5009392;28;20045;-76
2022/09/10 03:33:37;;;;;;;2.95;0.70;;;;;;;;;;5009644;28;20084;-76
2022/09/10 03:36:04;;;;;;;2.97;0.70;;;;;;;;;;5009223;28;20041;-76
2022/09/10 03:38:30;;;;;;;5.93;0.75;;;;;;;;;;5009296;28;20049;-76
2022/09/10 03:40:56;;;;;;;3.70;1.05;;;;;;;;;;5002291;28;20116;-76
2022/09/10 03:43:22;;;;;;;5.88;0.90;;;;;;;;;;4998508;28;20030;-76
2022/09/10 03:45:49;;;;;;;3.72;0.82;;;;;;;;;;5007823;28;20076;-76
2022/09/10 03:48:16;;;;;;;4.15;0.65;;;;;;;;;;5006172;28;20033;-76
2022/09/10 03:50:46;;;;;;;3.90;0.70;;;;;;;;;;5009895;28;20046;-76
2022/09/10 03:53:12;;;;;;;3.10;1.00;;;;;;;;;;5006167;28;20029;-76
2022/09/10 03:55:38;;;;;;;5.85;0.90;;;;;;;;;;5009286;28;20042;-76
2022/09/10 03:58:05;;;;;;;2.75;0.50;;;;;;;;;;5010281;28;20127;-76
2022/09/10 04:00:32;;;;;;;3.30;0.65;;;;;;;;;;5009290;28;20112;-76
2022/09/10 04:02:59;;;;;;;3.13;0.65;;;;;;;;;;5009248;28;20045;-76
2022/09/10 04:05:26;;;;;;;3.72;1.15;;;;;;;;;;5009202;28;20045;-76
2022/09/10 04:07:53;;;;;;;5.97;2.22;;;;;;;;;;5006024;28;20505;-76
2022/09/10 04:10:19;;;;;;;6.55;1.40;;;;;;;;;;5009477;28;20053;-76
2022/09/10 04:12:45;;;;;;;5.63;0.80;;;;;;;;;;5004865;28;20080;-76
2022/09/10 04:15:12;;;;;;;4.72;0.85;;;;;;;;;;5009679;28;20116;-76
2022/09/10 04:17:38;;;;;;;2.38;0.68;;;;;;;;;;5004447;28;20038;-76
2022/09/10 04:20:04;;;;;;;3.88;0.73;;;;;;;;;;5009874;28;20668;-76
2022/09/10 04:22:30;;;;;;;3.65;0.80;;;;;;;;;;5008754;28;20371;-76
2022/09/10 04:24:56;;;;;;;5.53;1.13;;;;;;;;;;5004922;28;20041;-76
2022/09/10 04:27:22;;;;;;;4.63;1.40;;;;;;;;;;5005395;28;20061;-76
2022/09/10 04:29:48;;;;;;;5.60;1.15;;;;;;;;;;5006428;28;20375;-76
2022/09/10 04:32:14;;;;;;;4.05;0.88;;;;;;;;;;5001284;28;20038;-76
2022/09/10 04:34:41;;;;;;;2.80;0.60;;;;;;;;;;5004961;28;20376;-76
2022/09/10 04:37:07;;;;;;;3.70;0.73;;;;;;;;;;5003085;28;20032;-76
2022/09/10 04:39:33;;;;;;;7.82;1.42;;;;;;;;;;4999302;28;20022;-76
2022/09/10 04:41:59;;;;;;;7.88;2.05;;;;;;;;;;5006404;28;20033;-76
2022/09/10 04:44:26;;;;;;;4.15;1.27;;;;;;;;;;5007249;28;20028;-76
2022/09/10 04:46:52;;;;;;;3.75;0.80;;;;;;;;;;5008159;28;20519;-76
2022/09/10 04:49:18;;;;;;;3.05;0.75;;;;;;;;;;5016749;28;20110;-76
2022/09/10 04:51:44;;;;;;;4.63;0.98;;;;;;;;;;5009422;28;20050;-76
2022/09/10 04:54:13;;;;;;;3.90;0.70;;;;;;;;;;5005687;28;20092;-76
2022/09/10 04:56:39;;;;;;;3.28;1.02;;;;;;;;;;5008688;28;20040;-76
2022/09/10 04:59:05;;;;;;;15.25;2.20;;;;;;;;;;5007808;28;20052;-76
2022/09/10 05:01:31;;;;;;;3.58;0.90;;;;;;;;;;5000077;28;20038;-76
2022/09/10 05:03:57;;;;;;;3.33;0.77;;;;;;;;;;5005551;28;20658;-76
2022/09/10 05:06:23;;;;;;;3.22;0.55;;;;;;;;;;5006394;28;20042;-76
2022/09/10 05:08:49;;;;;;;3.65;0.60;;;;;;;;;;5009752;28;20040;-76
2022/09/10 05:11:18;;;;;;;4.15;1.23;;;;;;;;;;5016451;28;20045;-76
2022/09/10 05:13:44;;;;;;;3.50;0.55;;;;;;;;;;5013205;28;20030;-76
2022/09/10 05:16:11;;;;;;;5.93;0.43;;;;;;;;;;5009902;28;20065;-76
2022/09/10 05:18:38;;;;;;;3.67;0.50;;;;;;;;;;5009172;28;20033;-76
2022/09/10 05:21:04;;;;;;;4.47;0.70;;;;;;;;;;5010644;28;20462;-76
2022/09/10 05:23:30;;;;;;;4.05;0.55;;;;;;;;;;5004859;28;20375;-76
2022/09/10 05:25:57;;;;;;;4.32;0.50;;;;;;;;;;5000446;28;20054;-76
2022/09/10 05:28:23;;;;;;;3.03;0.43;;;;;;;;;;5003869;28;20034;-76
2022/09/10 05:30:49;;;;;;;3.70;0.82;;;;;;;;;;5007935;28;20037;-76
2022/09/10 05:33:15;;;;;;;2.70;0.40;;;;;;;;;;5015764;28;20025;-76
2022/09/10 05:35:41;;;;;;;3.35;0.60;;;;;;;;;;5009285;28;20084;-76
2022/09/10 05:38:09;;;;;;;2.55;0.50;;;;;;;;;;5009131;28;20826;-76
2022/09/10 05:40:35;;;;;;;2.95;0.60;;;;;;;;;;5008848;28;20557;-76
2022/09/10 05:43:01;;;;;;;1.83;0.40;;;;;;;;;;5008852;28;20025;-76
2022/09/10 05:45:27;;;;;;;2.25;0.60;;;;;;;;;;5007480;28;20049;-76
2022/09/10 05:47:53;;;;;;;4.15;0.52;;;;;;;;;;5009299;28;20026;-76
2022/09/10 05:50:19;;;;;;;2.00;0.50;;;;;;;;;;5011509;28;20044;-76
2022/09/10 05:52:45;;;;;;;2.97;0.60;;;;;;;;;;5012669;28;20034;-76
2022/09/10 05:55:11;;;;;;;6.53;1.55;;;;;;;;;;5010497;28;20052;-76
2022/09/10 05:57:39;;;;;;;3.17;0.50;;;;;;;;;;5005194;28;20030;-76
2022/09/10 06:00:08;;;;;;;3.28;0.70;;;;;;;;;;5001652;28;20103;-76
2022/09/10 06:02:34;;;;;;;2.85;0.40;;;;;;;;;;5010638;28;20050;-76
2022/09/10 06:05:00;;;;;;;1.63;0.50;;;;;;;;;;5008764;28;20049;-76
2022/09/10 06:07:27;;;;;;;1.60;0.50;;;;;;;;;;5003848;28;20034;-76
2022/09/10 06:09:53;;;;;;;7.15;0.73;;;;;;;;;;5011027;28;20042;-76
2022/09/10 06:12:19;;;;;;;9.65;0.95;;;;;;;;;;5009017;28;20580;-76
2022/09/10 06:14:45;;;;;;;4.32;0.40;;;;;;;;;;5010238;28;20435;-76
2022/09/10 06:17:11;;;;;;;4.18;0.50;;;;;;;;;;5003214;28;20018;-76
2022/09/10 06:19:38;;;;;;;3.35;0.50;;;;;;;;;;4992229;28;20384;-75
2022/09/10 06:22:05;;;;;;;4.15;0.50;;;;;;;;;;5008381;28;20022;-76
2022/09/10 06:24:31;;;;;;;2.78;0.57;;;;;;;;;;5004888;28;20040;-75
2022/09/10 06:26:57;;;;;;;3.10;0.60;;;;;;;;;;5010218;28;20095;-76
2022/09/10 06:29:23;;;;;;;4.53;0.60;;;;;;;;;;5005328;28;20045;-76
2022/09/10 06:31:49;;;;;;;4.82;1.00;;;;;;;;;;5008657;28;20044;-76
2022/09/10 06:34:17;;;;;;;3.15;0.75;;;;;;;;;;5004757;28;20218;-76
2022/09/10 06:36:44;;;;;;;3.83;0.60;;;;;;;;;;5002898;28;20106;-76
2022/09/10 06:39:10;;;;;;;2.78;0.65;;;;;;;;;;5006884;28;20543;-76
2022/09/10 06:41:36;;;;;;;2.17;0.50;;;;;;;;;;5007072;28;20113;-75
2022/09/10 06:44:02;;;;;;;6.35;0.82;;;;;;;;;;5007491;28;20030;-76
2022/09/10 06:46:28;;;;;;;5.57;0.70;;;;;;;;;;5008054;28;20049;-76
2022/09/10 06:48:59;;;;;;;2.83;0.50;;;;;;;;;;5009159;28;20099;-76
2022/09/10 06:51:25;;;;;;;4.20;0.73;;;;;;;;;;5004125;28;20033;-76
2022/09/10 06:53:51;;;;;;;2.22;0.65;;;;;;;;;;5005187;28;20092;-76
2022/09/10 06:56:17;;;;;;;6.20;1.33;;;;;;;;;;5009244;28;20038;-76
2022/09/10 06:58:43;;;;;;;4.00;0.70;;;;;;;;;;5008365;28;20036;-76
2022/09/10 07:01:10;;;;;;;3.97;0.80;;;;;;;;;;5010128;28;20033;-76
2022/09/10 07:03:37;;;;;;;6.40;1.20;;;;;;;;;;5005252;28;21530;-76
2022/09/10 07:06:04;;;;;;;4.82;1.13;;;;;;;;;;4992893;28;20034;-75
2022/09/10 07:08:30;;;;;;;5.57;1.20;;;;;;;;;;4992907;28;20048;-76
2022/09/10 07:10:59;;;;;;;2.20;1.08;;;;;;;;;;4996001;28;20040;-75
2022/09/10 07:13:26;;;;;;;3.45;1.23;;;;;;;;;;4993812;28;20069;-76
2022/09/10 07:15:52;;;;;;;3.70;1.00;;;;;;;;;;5004767;28;20801;-76
2022/09/10 07:18:18;;;;;;;5.18;1.75;;;;;;;;;;5002976;28;20379;-76
2022/09/10 07:20:45;;;;;;;5.88;1.73;;;;;;;;;;5000995;28;20054;-76
2022/09/10 07:23:12;;;;;;;5.65;1.20;;;;;;;;;;5001319;28;20097;-76
2022/09/10 07:25:38;;;;;;;5.15;1.63;;;;;;;;;;5003322;28;20410;-76
2022/09/10 07:28:05;;;;;;;3.83;1.20;;;;;;;;;;5001190;28;20030;-76
2022/09/10 07:30:32;;;;;;;4.28;1.30;;;;;;;;;;5004169;28;20038;-76
2022/09/10 07:32:58;;;;;;;3.90;1.10;;;;;;;;;;4996599;28;20904;-76
2022/09/10 07:35:24;;;;;;;3.55;0.75;;;;;;;;;;5005060;28;20487;-76
2022/09/10 07:37:50;;;;;;;3.40;1.00;;;;;;;;;;5007199;28;20054;-75
2022/09/10 07:40:16;;;;;;;8.43;0.88;;;;;;;;;;5007037;28;20064;-76
2022/09/10 07:42:43;;;;;;;4.63;0.93;;;;;;;;;;5008972;28;20040;-76
2022/09/10 07:45:12;;;;;;;4.22;1.08;;;;;;;;;;5004218;28;20038;-76
2022/09/10 07:47:39;;;;;;;4.25;1.30;;;;;;;;;;4995167;28;20022;-76
2022/09/10 07:50:06;;;;;;;4.15;1.00;;;;;;;;;;5004473;28;20926;-76
2022/09/10 07:52:33;;;;;;;3.63;1.08;;;;;;;;;;5002967;28;20029;-77
2022/09/10 07:54:59;;;;;;;3.75;0.88;;;;;;;;;;5001434;28;20811;-76
2022/09/10 07:57:25;;;;;;;3.53;0.70;;;;;;;;;;5002139;28;20025;-76
2022/09/10 07:59:52;;;;;;;3.25;0.52;;;;;;;;;;5003541;28;20117;-76
2022/09/10 08:02:20;;;;;;;2.05;0.70;;;;;;;;;;5001287;28;20023;-76
2022/09/10 08:04:46;;;;;;;2.85;0.60;;;;;;;;;;5003440;28;20038;-76
2022/09/10 08:07:16;;;;;;;3.35;0.90;;;;;;;;;;5001445;28;20026;-76
2022/09/10 08:09:42;;;;;;;2.22;0.55;;;;;;;;;;4998065;28;20049;-76
2022/09/10 08:12:08;;;;;;;4.00;0.55;;;;;;;;;;5003379;28;20038;-76
2022/09/10 08:14:36;;;;;;;3.58;0.50;;;;;;;;;;5003496;28;20029;-76
2022/09/10 08:17:02;;;;;;;4.70;0.73;;;;;;;;;;5010968;28;20574;-76
2022/09/10 08:19:28;;;;;;;5.43;1.25;;;;;;;;;;5010347;28;20177;-76
2022/09/10 08:21:55;;;;;;;4.25;0.77;;;;;;;;;;5006990;28;20022;-76
2022/09/10 08:24:21;;;;;;;6.70;2.40;;;;;;;;;;5008195;28;20033;-76
2022/09/10 08:26:48;;;;;;;8.77;3.80;;;;;;;;;;5002642;28;20622;-76
2022/09/10 08:29:14;;;;;;;8.07;2.60;;;;;;;;;;5009098;28;20467;-76
2022/09/10 08:31:41;;;;;;;7.70;2.47;;;;;;;;;;5004458;28;20807;-72
2022/09/10 08:34:08;;;;;;;9.55;2.45;;;;;;;;;;5003799;28;20387;-75
2022/09/10 08:36:34;;;;;;;7.15;2.20;;;;;;;;;;4996122;28;20034;-73
2022/09/10 08:39:00;;;;;;;6.85;1.98;;;;;;;;;;4997480;28;20096;-73
2022/09/10 08:41:27;;;;;;;7.43;2.05;;;;;;;;;;4996212;28;20045;-73
2022/09/10 08:44:08;;;;;;;6.93;2.13;;;;;;;;;;5001937;28;20030;-75
2022/09/10 08:46:41;;;;;;;3.30;1.00;;;;;;;;;;5004965;28;20083;-76
2022/09/10 08:49:11;;;;;;;4.85;1.00;;;;;;;;;;4999652;28;20112;-76
2022/09/10 08:51:41;;;;;;;3.97;1.23;;;;;;;;;;5001243;28;20145;-76
2022/09/10 08:54:13;;;;;;;2.72;0.50;;;;;;;;;;5003509;28;20068;-76
2022/09/10 08:56:41;;;;;;;6.35;0.93;;;;;;;;;;5001996;28;20034;-76
2022/09/10 08:59:28;;;;;;;8.02;0.70;;;;;;;;;;5004686;28;20863;-76
2022/09/10 09:02:00;;;;;;;8.18;0.57;;;;;;;;;;5004013;28;20038;-76
2022/09/10 09:04:37;;;;;;;2.42;0.40;;;;;;;;;;5003424;28;20029;-76
2022/09/10 09:07:05;;;;;;;4.28;0.70;;;;;;;;;;5003243;28;20030;-76
2022/09/10 09:09:31;;;;;;;7.95;0.50;;;;;;;;;;5001323;28;20607;-76
2022/09/10 09:11:57;;;;;;;6.47;0.80;;;;;;;;;;4986465;28;20034;-76
2022/09/10 09:14:24;;;;;;;3.22;0.50;;;;;;;;;;4983471;28;20026;-76
2022/09/10 09:16:58;;;;;;;3.88;0.50;;;;;;;;;;5000738;28;20470;-76
2022/09/10 09:19:32;;;;;;;3.42;0.40;;;;;;;;;;4998090;28;20053;-76
2022/09/10 09:22:16;;;;;;;4.60;0.68;;;;;;;;;;5003682;28;20742;-76
2022/09/10 09:24:54;;;;;;;5.65;0.70;;;;;;;;;;4998245;28;20038;-77
2022/09/10 09:27:20;;;;;;;3.95;0.50;;;;;;;;;;4985617;28;20679;-77
2022/09/10 09:29:53;;;;;;;5.65;0.60;;;;;;;;;;5000865;28;20057;-76
2022/09/10 09:32:20;;;;;;;4.47;0.82;;;;;;;;;;5000929;28;20108;-76
2022/09/10 09:34:49;;;;;;;6.93;0.80;;;;;;;;;;5002267;28;20113;-76
2022/09/10 09:37:35;;;;;;;7.25;0.60;;;;;;;;;;4986248;28;20061;-76
2022/09/10 09:40:05;;;;;;;7.70;0.70;;;;;;;;;;4987388;28;20420;-76
2022/09/10 09:42:52;;;;;;;4.70;0.70;;;;;;;;;;4998456;28;20038;-76
2022/09/10 09:45:24;;;;;;;4.97;0.77;;;;;;;;;;4982164;28;20058;-76
2022/09/10 09:47:50;;;;;;;;;;;;;;;;;;5005688;28;20152;-76
2022/09/10 09:50:19;;;;;;;3.80;0.60;;;;;;;;;;5007452;28;19925;-76
2022/09/10 09:52:46;;;;;;;2.33;0.40;;;;;;;;;;4981864;28;20035;-76
2022/09/10 09:55:25;;;;;;;2.80;0.40;;;;;;;;;;5003977;28;20044;-75
2022/09/10 09:58:11;;;;;;;3.47;0.60;;;;;;;;;;5001436;28;20633;-76
2022/09/10 10:00:37;;;;;;;5.80;0.80;;;;;;;;;;4980957;28;20029;-76
2022/09/10 10:03:05;;;;;;;10.07;1.10;;;;;;;;;;5004738;28;20114;-76
2022/09/10 10:05:32;;;;;;;8.15;0.80;;;;;;;;;;5000336;28;20073;-76
2022/09/10 10:07:58;;;;;;;4.65;0.50;;;;;;;;;;5002747;28;20029;-76
2022/09/10 10:10:25;;;;;;;2.58;0.60;;;;;;;;;;4986209;28;20129;-77
2022/09/10 10:12:52;;;;;;;8.35;1.10;;;;;;;;;;4999605;28;20076;-76
2022/09/10 10:15:34;;;;;;;6.13;0.82;;;;;;;;;;5005711;28;20038;-76
2022/09/10 10:18:02;;;;;;;4.93;0.60;;;;;;;;;;5007277;28;20032;-76
2022/09/10 10:20:40;;;;;;;3.95;0.52;;;;;;;;;;4992599;28;20044;-77
2022/09/10 10:23:26;;;;;;;7.00;0.70;;;;;;;;;;5009359;28;20022;-76
2022/09/10 10:25:52;;;;;;;6.05;1.00;;;;;;;;;;5001089;28;20058;-77
2022/09/10 10:28:23;;;;;;;3.42;0.73;;;;;;;;;;4989586;28;20049;-76
2022/09/10 10:30:53;;;;;;;5.07;0.63;;;;;;;;;;5003589;28;20789;-76
2022/09/10 10:33:25;;;;;;;5.75;0.55;;;;;;;;;;5006153;28;20029;-77
2022/09/10 10:35:58;;;;;;;5.22;0.65;;;;;;;;;;5006947;28;20041;-77
2022/09/10 10:38:36;;;;;;;5.47;0.68;;;;;;;;;;5003510;28;20529;-76
2022/09/10 10:41:11;;;;;;;4.80;0.70;;;;;;;;;;5003988;28;20039;-77
2022/09/10 10:43:55;;;;;;;6.88;0.60;;;;;;;;;;5003670;28;20888;-77
2022/09/10 10:46:25;;;;;;;4.95;0.70;;;;;;;;;;5006593;28;20108;-77
2022/09/10 10:49:11;;;;;;;4.63;0.60;;;;;;;;;;5009125;28;20663;-77
2022/09/10 10:51:41;;;;;;;4.13;0.80;;;;;;;;;;4998030;28;20042;-77
2022/09/10 10:54:22;;;;;;;4.57;0.80;;;;;;;;;;5008776;28;20033;-77
2022/09/10 10:57:12;;;;;;;4.82;0.60;;;;;;;;;;5003741;28;20444;-77
2022/09/10 10:59:38;;;;;;;4.18;1.00;;;;;;;;;;5001978;28;20033;-76
2022/09/10 11:02:30;;;;;;;2.83;0.50;;;;;;;;;;5001964;28;20080;-77
2022/09/10 11:04:57;;;;;;;;;;;;;;;;;;5007210;28;20049;-76
2022/09/10 11:07:52;;;;;;;3.10;0.63;;;;;;;;;;5003587;28;19913;-76
2022/09/10 11:10:39;;;;;;;5.97;0.60;;;;;;;;;;4971689;28;20054;-76
2022/09/10 11:13:24;;;;;;;4.13;0.75;;;;;;;;;;5004810;28;20026;-76
2022/09/10 11:15:59;;;;;;;2.75;0.40;;;;;;;;;;5008533;28;20038;-76
2022/09/10 11:18:30;;;;;;;5.55;1.23;;;;;;;;;;5009867;28;20108;-76
2022/09/10 11:21:17;;;;;;;3.05;0.52;;;;;;;;;;5006075;28;20033;-76
2022/09/10 11:24:00;;;;;;;2.22;0.40;;;;;;;;;;5000369;28;20095;-77
2022/09/10 11:26:38;;;;;;;4.07;0.50;;;;;;;;;;5006429;28;20065;-76
2022/09/10 11:29:11;;;;;;;4.93;0.57;;;;;;;;;;5008238;28;20038;-76
2022/09/10 11:31:45;;;;;;;7.80;0.75;;;;;;;;;;5007250;28;20038;-77
2022/09/10 11:34:16;;;;;;;2.40;0.63;;;;;;;;;;5011149;28;20048;-76
2022/09/10 11:36:46;;;;;;;1.53;0.47;;;;;;;;;;5009249;28;20054;-76
2022/09/10 11:39:19;;;;;;;3.15;0.73;;;;;;;;;;5011321;28;20018;-76
2022/09/10 11:41:46;;;;;;;3.50;0.45;;;;;;;;;;5009723;28;20081;-76
2022/09/10 11:44:16;;;;;;;2.35;0.30;;;;;;;;;;5012513;28;20026;-76
2022/09/10 11:47:03;;;;;;;4.97;0.57;;;;;;;;;;5004683;28;20069;-76
2022/09/10 11:49:28;;;;;;;2.13;0.35;;;;;;;;;;5004122;28;20045;-76
2022/09/10 11:51:55;;;;;;;2.80;0.40;;;;;;;;;;5003729;28;20038;-76
2022/09/10 11:54:25;;;;;;;2.75;0.30;;;;;;;;;;4997023;28;21568;-76
2022/09/10 11:57:04;;;;;;;4.70;0.50;;;;;;;;;;5000468;28;20141;-76
2022/09/10 11:59:36;;;;;;;3.05;0.40;;;;;;;;;;5002230;28;20034;-76
2022/09/10 12:02:05;;;;;;;3.63;0.30;;;;;;;;;;5000449;28;20034;-76
2022/09/10 12:04:46;;;;;;;6.95;0.75;;;;;;;;;;5002147;28;20061;-76
2022/09/10 12:07:27;;;;;;;3.60;0.50;;;;;;;;;;5004424;28;20152;-76
2022/09/10 12:09:59;;;;;;;5.73;0.40;;;;;;;;;;5000697;28;20038;-76
2022/09/10 12:12:36;;;;;;;4.07;0.50;;;;;;;;;;5002847;28;20033;-76
2022/09/10 12:15:07;;;;;;;6.50;0.60;;;;;;;;;;5002806;28;20060;-75
2022/09/10 12:17:36;;;;;;;2.75;0.32;;;;;;;;;;5005132;28;20725;-75
2022/09/10 12:20:03;;;;;;;4.72;0.52;;;;;;;;;;5002745;28;20034;-75
2022/09/10 12:22:38;;;;;;;3.28;0.40;;;;;;;;;;4997854;28;20030;-76
2022/09/10 12:25:06;;;;;;;3.00;0.35;;;;;;;;;;4999169;28;20566;-76
2022/09/10 12:27:49;;;;;;;2.60;0.32;;;;;;;;;;5002656;28;20053;-75
2022/09/10 12:30:26;;;;;;;3.45;0.40;;;;;;;;;;4998209;28;20042;-75
2022/09/10 12:32:52;;;;;;;3.38;0.60;;;;;;;;;;5003821;28;20029;-75
2022/09/10 12:35:30;;;;;;;1.92;0.68;;;;;;;;;;5003235;28;20038;-75
2022/09/10 12:38:15;;;;;;;2.80;0.63;;;;;;;;;;4999310;28;20068;-75
2022/09/10 12:40:48;;;;;;;1.58;0.30;;;;;;;;;;4993159;28;20034;-75
2022/09/10 12:43:43;;;;;;;2.67;0.30;;;;;;;;;;5003092;28;20021;-75
2022/09/10 12:46:11;;;;;;;5.30;0.40;;;;;;;;;;4919884;28;20083;-75
2022/09/10 12:48:48;;;;;;;4.15;0.52;;;;;;;;;;5001596;28;20072;-75
2022/09/10 12:51:16;;;;;;;2.70;0.50;;;;;;;;;;4998604;28;20045;-75
2022/09/10 12:53:46;;;;;;;1.67;0.30;;;;;;;;;;5004601;28;20096;-75
2022/09/10 12:56:24;;;;;;;3.30;0.50;;;;;;;;;;5001320;28;20375;-75
2022/09/10 12:59:05;;;;;;;2.83;0.40;;;;;;;;;;5003124;28;20041;-75
2022/09/10 13:01:31;;;;;;;3.75;0.47;;;;;;;;;;4999246;28;20033;-75
2022/09/10 13:04:01;;;;;;;1.95;0.50;;;;;;;;;;4999974;28;20037;-75
2022/09/10 13:06:39;;;;;;;1.80;0.30;;;;;;;;;;4998423;28;20038;-75
2022/09/10 13:09:15;;;;;;;3.13;0.40;;;;;;;;;;5002463;28;20586;-75
2022/09/10 13:11:42;;;;;;;2.97;0.28;;;;;;;;;;5000551;28;20038;-75
2022/09/10 13:14:15;;;;;;;2.78;0.30;;;;;;;;;;5001713;28;20108;-75
2022/09/10 13:16:42;;;;;;;2.22;0.30;;;;;;;;;;5000146;28;20046;-75
2022/09/10 13:19:16;;;;;;;2.45;0.40;;;;;;;;;;4997258;28;20311;-75
2022/09/10 13:21:42;;;;;;;2.45;0.30;;;;;;;;;;5001749;28;20367;-75
2022/09/10 13:24:30;;;;;;;2.17;0.30;;;;;;;;;;4999378;28;20033;-75
2022/09/10 13:27:03;;;;;;;3.35;0.50;;;;;;;;;;5002078;28;20085;-75
2022/09/10 13:29:39;;;;;;;3.33;0.40;;;;;;;;;;4999368;28;20048;-75
2022/09/10 13:32:19;;;;;;;3.15;0.40;;;;;;;;;;5003982;28;20113;-75
2022/09/10 13:35:05;;;;;;;2.45;0.30;;;;;;;;;;5001257;28;20439;-75
2022/09/10 13:37:50;;;;;;;2.42;0.47;;;;;;;;;;5001674;28;20475;-75
2022/09/10 13:40:27;;;;;;;5.10;0.30;;;;;;;;;;5006007;28;20034;-75
2022/09/10 13:43:12;;;;;;;1.70;0.20;;;;;;;;;;5002843;28;20136;-75
2022/09/10 13:45:38;;;;;;;2.67;0.30;;;;;;;;;;5000724;28;20100;-75
2022/09/10 13:48:23;;;;;;;2.78;0.40;;;;;;;;;;5000781;28;20041;-75
2022/09/10 13:50:49;;;;;;;2.08;0.25;;;;;;;;;;5003859;28;20105;-75
2022/09/10 13:53:16;;;;;;;4.20;0.38;;;;;;;;;;5004998;28;20104;-75
2022/09/10 13:56:06;;;;;;;2.05;0.40;;;;;;;;;;5001795;28;20049;-75
2022/09/10 13:58:35;;;;;;;1.90;0.35;;;;;;;;;;5000363;28;20049;-75
2022/09/10 14:01:02;;;;;;;2.35;0.32;;;;;;;;;;5006005;28;20041;-75
2022/09/10 14:03:32;;;;;;;2.97;0.28;;;;;;;;;;5000020;28;20030;-75
2022/09/10 14:06:03;;;;;;;4.50;0.68;;;;;;;;;;5002987;28;20038;-75
2022/09/10 14:08:37;;;;;;;3.22;0.40;;;;;;;;;;5003688;28;20026;-75
2022/09/10 14:11:12;;;;;;;2.58;0.73;;;;;;;;;;5001138;28;20061;-75
2022/09/10 14:13:38;;;;;;;2.85;0.30;;;;;;;;;;5002157;28;20040;-75
2022/09/10 14:16:06;;;;;;;1.70;0.40;;;;;;;;;;5009576;28;20038;-75
2022/09/10 14:18:36;;;;;;;3.92;0.20;;;;;;;;;;5006093;28;20385;-75
2022/09/10 14:21:02;;;;;;;1.05;0.25;;;;;;;;;;5003187;28;20046;-75
2022/09/10 14:23:28;;;;;;;3.67;0.30;;;;;;;;;;4999920;28;20376;-75
2022/09/10 14:26:16;;;;;;;2.25;0.30;;;;;;;;;;5006927;28;20044;-75
2022/09/10 14:28:53;;;;;;;3.28;0.30;;;;;;;;;;5004993;28;20030;-75
2022/09/10 14:31:25;;;;;;;3.92;0.70;;;;;;;;;;5008742;28;20113;-75
2022/09/10 14:33:51;;;;;;;2.30;0.40;;;;;;;;;;5002988;28;20037;-75
2022/09/10 14:36:18;;;;;;;3.60;0.30;;;;;;;;;;5002236;28;20031;-75
2022/09/10 14:38:51;;;;;;;4.47;0.35;;;;;;;;;;5004060;28;20457;-75
2022/09/10 14:41:19;;;;;;;1.67;0.20;;;;;;;;;;5004632;28;20034;-75
2022/09/10 14:43:45;;;;;;;1.75;0.30;;;;;;;;;;5007398;28;21887;-75
2022/09/10 14:46:13;;;;;;;2.70;0.35;;;;;;;;;;5001304;28;20060;-75
2022/09/10 14:48:41;;;;;;;3.08;0.55;;;;;;;;;;4995595;28;20456;-76
2022/09/10 14:51:08;;;;;;;3.42;0.30;;;;;;;;;;5002858;28;20509;-76
2022/09/10 14:53:34;;;;;;;1.52;0.30;;;;;;;;;;4998119;28;20039;-75
2022/09/10 14:55:59;;;;;;;0.77;0.20;;;;;;;;;;4996168;28;20035;-75
2022/09/10 14:58:26;;;;;;;1.30;0.40;;;;;;;;;;5001600;28;20122;-76